sensor_id;sensor_type;location;lat;lon;timestamp;pressure;altitude;pressure_sealevel;temperature;humidity
41230;BME280;26964;50.428;19.218;2023-03-12T00:01:26;1011.5;;;-2.3;79.4
41230;BME280;26964;50.428;19.218;2023-03-12T00:06:26;1011.5;;;-2.3;79.4
41230;BME280;26964;50.428;19.218;2023-03-12T00:11:27;1011.5;;;-2.2;79.4
41230;BME280;26964;50.428;19.218;2023-03-12T00:16:26;1011.6;;;-2.2;79.5
41230;BME280;26964;50.428;19.218;2023-03-12T00:21:26;1011.5;;;-2.1;79.5
41230;BME280;26964;50.428;19.218;2023-03-12T00:26:26;1011.6;;;-2.1;79.5
41230;BME280;26964;50.428;19.218;2023-03-12T00:31:28;1011.7;;;-2.1;79.5
41230;BME280;26964;50.428;19.218;2023-03-12T00:36:28;1011.8;;;-2.0;79.5
41230;BME280;26964;50.428;19.218;2023-03-12T00:41:27;1011.8;;;-2.0;79.4
41230;BME280;26964;50.428;19.218;2023-03-12T00:46:27;1011.8;;;-2.0;79.4
41230;BME280;26964;50.428;19.218;2023-03-12T00:51:27;1011.9;;;-2.1;79.3
41230;BME280;26964;50.428;19.218;2023-03-12T00:56:26;1011.8;;;-2.1;79.2
41230;BME280;26964;50.428;19.218;2023-03-12T01:01:27;1011.7;;;-2.2;79.3
41230;BME280;26964;50.428;19.218;2023-03-12T01:06:26;1011.8;;;-2.2;79.3
41230;BME280;26964;50.428;19.218;2023-03-12T01:11:27;1011.9;;;-2.2;79.3
41230;BME280;26964;50.428;19.218;2023-03-12T01:16:26;1011.8;;;-2.2;79.3
41230;BME280;26964;50.428;19.218;2023-03-12T01:21:27;1011.8;;;-2.2;79.3
41230;BME280;26964;50.428;19.218;2023-03-12T01:26:26;1011.9;;;-2.2;79.4
41230;BME280;26964;50.428;19.218;2023-03-12T01:31:27;1011.9;;;-2.2;79.3
41230;BME280;26964;50.428;19.218;2023-03-12T01:36:28;1011.9;;;-2.2;79.3
41230;BME280;26964;50.428;19.218;2023-03-12T01:41:29;1011.9;;;-2.2;79.3
41230;BME280;26964;50.428;19.218;2023-03-12T01:46:29;1011.8;;;-2.2;79.3
41230;BME280;26964;50.428;19.218;2023-03-12T01:51:31;1011.8;;;-2.3;79.2
41230;BME280;26964;50.428;19.218;2023-03-12T01:56:29;1011.9;;;-2.3;79.1
41230;BME280;26964;50.428;19.218;2023-03-12T02:01:26;1012.1;;;-2.4;79.1
41230;BME280;26964;50.428;19.218;2023-03-12T02:06:32;1012.1;;;-2.5;79.1
41230;BME280;26964;50.428;19.218;2023-03-12T02:11:26;1012.1;;;-2.5;79.1
41230;BME280;26964;50.428;19.218;2023-03-12T02:16:26;1012.1;;;-2.6;79.1
41230;BME280;26964;50.428;19.218;2023-03-12T02:21:30;1012.2;;;-2.6;79.1
41230;BME280;26964;50.428;19.218;2023-03-12T02:26:28;1012.2;;;-2.7;79.2
41230;BME280;26964;50.428;19.218;2023-03-12T02:31:32;1012.2;;;-2.7;79.2
41230;BME280;26964;50.428;19.218;2023-03-12T02:36:26;1012.2;;;-2.7;79.2
41230;BME280;26964;50.428;19.218;2023-03-12T02:41:29;1012.3;;;-2.8;79.2
41230;BME280;26964;50.428;19.218;2023-03-12T02:46:26;1012.4;;;-2.8;79.1
41230;BME280;26964;50.428;19.218;2023-03-12T02:51:27;1012.5;;;-2.9;79.1
41230;BME280;26964;50.428;19.218;2023-03-12T02:56:27;1012.5;;;-3.0;79.1
41230;BME280;26964;50.428;19.218;2023-03-12T03:01:26;1012.5;;;-3.0;79.1
41230;BME280;26964;50.428;19.218;2023-03-12T03:06:26;1012.6;;;-3.1;79.1
41230;BME280;26964;50.428;19.218;2023-03-12T03:11:26;1012.6;;;-3.2;79.1
41230;BME280;26964;50.428;19.218;2023-03-12T03:16:27;1012.6;;;-3.2;79.1
41230;BME280;26964;50.428;19.218;2023-03-12T03:21:26;1012.8;;;-3.3;79.1
41230;BME280;26964;50.428;19.218;2023-03-12T03:26:26;1012.9;;;-3.3;79.1
41230;BME280;26964;50.428;19.218;2023-03-12T03:31:26;1012.8;;;-3.4;79.1
41230;BME280;26964;50.428;19.218;2023-03-12T03:36:27;1013.0;;;-3.4;79.1
41230;BME280;26964;50.428;19.218;2023-03-12T03:41:26;1013.0;;;-3.5;79.2
41230;BME280;26964;50.428;19.218;2023-03-12T03:46:27;1013.1;;;-3.5;79.2
41230;BME280;26964;50.428;19.218;2023-03-12T03:51:26;1013.1;;;-3.6;79.1
41230;BME280;26964;50.428;19.218;2023-03-12T03:56:26;1013.2;;;-3.7;79.1
41230;BME280;26964;50.428;19.218;2023-03-12T04:01:26;1013.2;;;-3.7;79.1
41230;BME280;26964;50.428;19.218;2023-03-12T04:06:27;1013.1;;;-3.7;79.1
41230;BME280;26964;50.428;19.218;2023-03-12T04:11:26;1013.1;;;-3.7;79.2
41230;BME280;26964;50.428;19.218;2023-03-12T04:16:26;1013.1;;;-3.8;79.1
41230;BME280;26964;50.428;19.218;2023-03-12T04:21:27;1013.2;;;-3.8;79.1
41230;BME280;26964;50.428;19.218;2023-03-12T04:26:26;1013.2;;;-3.8;79.1
41230;BME280;26964;50.428;19.218;2023-03-12T04:31:26;1013.3;;;-3.9;79.1
41230;BME280;26964;50.428;19.218;2023-03-12T04:36:26;1013.4;;;-3.9;79.1
41230;BME280;26964;50.428;19.218;2023-03-12T04:41:26;1013.4;;;-3.9;79.2
41230;BME280;26964;50.428;19.218;2023-03-12T04:46:26;1013.4;;;-3.9;79.2
41230;BME280;26964;50.428;19.218;2023-03-12T04:51:27;1013.4;;;-3.8;79.2
41230;BME280;26964;50.428;19.218;2023-03-12T04:56:26;1013.5;;;-3.8;79.3
41230;BME280;26964;50.428;19.218;2023-03-12T05:01:27;1013.5;;;-3.7;79.3
41230;BME280;26964;50.428;19.218;2023-03-12T05:06:27;1013.6;;;-3.7;79.3
41230;BME280;26964;50.428;19.218;2023-03-12T05:11:26;1013.6;;;-3.6;79.2
41230;BME280;26964;50.428;19.218;2023-03-12T05:16:26;1013.6;;;-3.5;79.2
41230;BME280;26964;50.428;19.218;2023-03-12T05:21:27;1013.7;;;-3.5;79.2
41230;BME280;26964;50.428;19.218;2023-03-12T05:26:27;1013.7;;;-3.4;79.2
41230;BME280;26964;50.428;19.218;2023-03-12T05:31:26;1013.8;;;-3.4;79.1
41230;BME280;26964;50.428;19.218;2023-03-12T05:36:26;1013.7;;;-3.3;79.2
41230;BME280;26964;50.428;19.218;2023-03-12T05:41:27;1013.9;;;-3.2;79.1
41230;BME280;26964;50.428;19.218;2023-03-12T05:46:26;1013.9;;;-3.2;79.1
41230;BME280;26964;50.428;19.218;2023-03-12T05:51:26;1013.9;;;-3.0;79.0
41230;BME280;26964;50.428;19.218;2023-03-12T05:56:26;1014.0;;;-3.0;79.0
41230;BME280;26964;50.428;19.218;2023-03-12T06:01:27;1014.1;;;-2.9;78.9
41230;BME280;26964;50.428;19.218;2023-03-12T06:06:28;1014.1;;;-2.8;78.8
41230;BME280;26964;50.428;19.218;2023-03-12T06:11:26;1014.2;;;-2.8;78.8
41230;BME280;26964;50.428;19.218;2023-03-12T06:16:26;1014.2;;;-2.7;78.7
41230;BME280;26964;50.428;19.218;2023-03-12T06:21:28;1014.2;;;-2.6;78.6
41230;BME280;26964;50.428;19.218;2023-03-12T06:26:26;1014.3;;;-2.6;78.6
41230;BME280;26964;50.428;19.218;2023-03-12T06:31:25;1014.2;;;-2.5;78.4
41230;BME280;26964;50.428;19.218;2023-03-12T06:36:26;1014.3;;;-2.4;78.3
41230;BME280;26964;50.428;19.218;2023-03-12T06:41:26;1014.3;;;-2.2;78.1
41230;BME280;26964;50.428;19.218;2023-03-12T06:46:26;1014.4;;;-2.0;78.1
41230;BME280;26964;50.428;19.218;2023-03-12T06:51:26;1014.4;;;-1.9;78.1
41230;BME280;26964;50.428;19.218;2023-03-12T06:56:27;1014.5;;;-1.8;77.4
41230;BME280;26964;50.428;19.218;2023-03-12T07:01:25;1014.5;;;-1.5;77.9
41230;BME280;26964;50.428;19.218;2023-03-12T07:06:25;1014.4;;;-1.3;77.7
41230;BME280;26964;50.428;19.218;2023-03-12T07:11:26;1014.5;;;-1.2;77.8
41230;BME280;26964;50.428;19.218;2023-03-12T07:16:26;1014.5;;;-1.1;77.3
41230;BME280;26964;50.428;19.218;2023-03-12T07:21:26;1014.4;;;-1.1;77.2
41230;BME280;26964;50.428;19.218;2023-03-12T07:26:25;1014.6;;;-1.0;77.3
41230;BME280;26964;50.428;19.218;2023-03-12T07:31:26;1014.6;;;-0.9;77.1
41230;BME280;26964;50.428;19.218;2023-03-12T07:36:26;1014.6;;;-0.9;77.0
41230;BME280;26964;50.428;19.218;2023-03-12T07:41:26;1014.6;;;-0.9;76.8
41230;BME280;26964;50.428;19.218;2023-03-12T07:46:26;1014.6;;;-0.9;77.0
41230;BME280;26964;50.428;19.218;2023-03-12T07:51:25;1014.5;;;-0.9;76.7
41230;BME280;26964;50.428;19.218;2023-03-12T07:56:26;1014.6;;;-0.6;76.9
41230;BME280;26964;50.428;19.218;2023-03-12T08:01:26;1014.7;;;-0.4;76.7
41230;BME280;26964;50.428;19.218;2023-03-12T08:06:26;1014.7;;;-0.2;76.5
41230;BME280;26964;50.428;19.218;2023-03-12T08:11:25;1014.7;;;-0.0;76.4
41230;BME280;26964;50.428;19.218;2023-03-12T08:16:25;1014.7;;;0.2;76.2
41230;BME280;26964;50.428;19.218;2023-03-12T08:21:25;1014.8;;;0.3;76.0
41230;BME280;26964;50.428;19.218;2023-03-12T08:26:26;1014.7;;;0.5;75.6
41230;BME280;26964;50.428;19.218;2023-03-12T08:31:26;1014.8;;;0.6;75.3
41230;BME280;26964;50.428;19.218;2023-03-12T08:36:25;1014.7;;;0.8;75.5
41230;BME280;26964;50.428;19.218;2023-03-12T08:41:26;1014.9;;;0.9;74.5
41230;BME280;26964;50.428;19.218;2023-03-12T08:46:25;1014.9;;;1.0;74.8
41230;BME280;26964;50.428;19.218;2023-03-12T08:51:26;1014.9;;;1.1;74.7
41230;BME280;26964;50.428;19.218;2023-03-12T08:56:25;1015.0;;;1.2;74.9
41230;BME280;26964;50.428;19.218;2023-03-12T09:01:25;1015.1;;;1.4;74.2
41230;BME280;26964;50.428;19.218;2023-03-12T09:06:25;1015.1;;;1.5;73.9
41230;BME280;26964;50.428;19.218;2023-03-12T09:11:25;1015.1;;;1.6;73.7
41230;BME280;26964;50.428;19.218;2023-03-12T09:16:26;1015.1;;;1.6;74.3
41230;BME280;26964;50.428;19.218;2023-03-12T09:21:25;1015.0;;;1.8;74.3
41230;BME280;26964;50.428;19.218;2023-03-12T09:26:25;1015.0;;;1.8;74.1
41230;BME280;26964;50.428;19.218;2023-03-12T09:31:25;1015.0;;;1.9;74.2
41230;BME280;26964;50.428;19.218;2023-03-12T09:36:26;1014.9;;;1.8;74.0
41230;BME280;26964;50.428;19.218;2023-03-12T09:41:28;1014.9;;;2.0;74.3
41230;BME280;26964;50.428;19.218;2023-03-12T09:46:30;1015.0;;;2.0;73.9
41230;BME280;26964;50.428;19.218;2023-03-12T09:51:31;1015.0;;;2.0;73.0
41230;BME280;26964;50.428;19.218;2023-03-12T09:56:26;1015.0;;;2.2;73.4
41230;BME280;26964;50.428;19.218;2023-03-12T10:01:32;1014.9;;;2.1;72.3
41230;BME280;26964;50.428;19.218;2023-03-12T10:06:27;1015.0;;;2.0;73.6
41230;BME280;26964;50.428;19.218;2023-03-12T10:11:32;1014.9;;;2.1;73.8
41230;BME280;26964;50.428;19.218;2023-03-12T10:21:30;1015.0;;;2.4;73.9
41230;BME280;26964;50.428;19.218;2023-03-12T10:26:30;1014.9;;;2.4;73.5
41230;BME280;26964;50.428;19.218;2023-03-12T10:31:31;1015.1;;;2.5;72.7
41230;BME280;26964;50.428;19.218;2023-03-12T10:36:28;1015.0;;;2.6;72.8
41230;BME280;26964;50.428;19.218;2023-03-12T10:41:28;1015.0;;;2.6;72.9
41230;BME280;26964;50.428;19.218;2023-03-12T10:51:26;1015.1;;;2.6;73.0
41230;BME280;26964;50.428;19.218;2023-03-12T10:56:25;1015.1;;;2.6;72.5
41230;BME280;26964;50.428;19.218;2023-03-12T11:01:27;1015.1;;;2.6;73.1
41230;BME280;26964;50.428;19.218;2023-03-12T11:06:27;1015.1;;;2.6;72.3
41230;BME280;26964;50.428;19.218;2023-03-12T11:11:30;1015.2;;;2.8;72.0
41230;BME280;26964;50.428;19.218;2023-03-12T11:16:25;1015.1;;;2.9;71.6
41230;BME280;26964;50.428;19.218;2023-03-12T11:21:26;1015.2;;;3.1;72.2
41230;BME280;26964;50.428;19.218;2023-03-12T11:26:30;1015.1;;;3.3;71.6
41230;BME280;26964;50.428;19.218;2023-03-12T11:31:30;1015.2;;;3.3;71.4
41230;BME280;26964;50.428;19.218;2023-03-12T11:36:32;1015.2;;;3.1;71.0
41230;BME280;26964;50.428;19.218;2023-03-12T11:46:32;1015.1;;;3.2;70.0
41230;BME280;26964;50.428;19.218;2023-03-12T11:51:31;1014.9;;;3.7;71.6
41230;BME280;26964;50.428;19.218;2023-03-12T11:56:27;1015.0;;;3.7;70.6
41230;BME280;26964;50.428;19.218;2023-03-12T12:01:31;1015.0;;;3.7;70.8
41230;BME280;26964;50.428;19.218;2023-03-12T12:11:31;1014.9;;;3.6;70.4
41230;BME280;26964;50.428;19.218;2023-03-12T12:26:45;1015.0;;;4.0;69.9
41230;BME280;26964;50.428;19.218;2023-03-12T12:31:29;1014.9;;;4.0;69.7
41230;BME280;26964;50.428;19.218;2023-03-12T12:36:26;1015.0;;;4.0;70.0
41230;BME280;26964;50.428;19.218;2023-03-12T12:41:27;1015.0;;;3.9;69.7
41230;BME280;26964;50.428;19.218;2023-03-12T12:46:28;1015.1;;;3.8;69.7
41230;BME280;26964;50.428;19.218;2023-03-12T12:51:29;1015.0;;;4.0;69.6
41230;BME280;26964;50.428;19.218;2023-03-12T12:56:30;1015.1;;;4.2;69.8
41230;BME280;26964;50.428;19.218;2023-03-12T13:01:36;1015.0;;;4.2;69.1
41230;BME280;26964;50.428;19.218;2023-03-12T13:06:27;1015.0;;;4.2;68.7
41230;BME280;26964;50.428;19.218;2023-03-12T13:11:29;1015.0;;;4.3;68.7
41230;BME280;26964;50.428;19.218;2023-03-12T13:16:30;1014.9;;;4.3;68.2
41230;BME280;26964;50.428;19.218;2023-03-12T13:21:30;1014.9;;;4.3;68.3
41230;BME280;26964;50.428;19.218;2023-03-12T13:26:29;1014.9;;;4.2;67.2
41230;BME280;26964;50.428;19.218;2023-03-12T13:36:26;1015.0;;;4.2;67.9
41230;BME280;26964;50.428;19.218;2023-03-12T13:41:29;1015.0;;;4.3;68.0
41230;BME280;26964;50.428;19.218;2023-03-12T13:51:25;1015.0;;;4.4;67.7
41230;BME280;26964;50.428;19.218;2023-03-12T13:56:27;1015.1;;;4.4;67.5
41230;BME280;26964;50.428;19.218;2023-03-12T14:01:29;1015.1;;;4.3;67.4
41230;BME280;26964;50.428;19.218;2023-03-12T14:06:28;1015.1;;;4.3;67.4
41230;BME280;26964;50.428;19.218;2023-03-12T14:16:33;1015.2;;;4.3;67.1
41230;BME280;26964;50.428;19.218;2023-03-12T14:21:29;1015.2;;;4.3;67.1
41230;BME280;26964;50.428;19.218;2023-03-12T14:26:30;1015.4;;;4.3;67.1
41230;BME280;26964;50.428;19.218;2023-03-12T14:31:27;1015.2;;;4.3;66.6
41230;BME280;26964;50.428;19.218;2023-03-12T14:36:26;1015.3;;;4.4;66.7
41230;BME280;26964;50.428;19.218;2023-03-12T14:41:30;1015.4;;;4.4;66.8
41230;BME280;26964;50.428;19.218;2023-03-12T14:46:26;1015.4;;;4.4;66.5
41230;BME280;26964;50.428;19.218;2023-03-12T14:51:27;1015.3;;;4.4;66.4
41230;BME280;26964;50.428;19.218;2023-03-12T14:56:27;1015.3;;;4.4;66.0
41230;BME280;26964;50.428;19.218;2023-03-12T15:01:27;1015.3;;;4.3;66.1
41230;BME280;26964;50.428;19.218;2023-03-12T15:06:28;1015.2;;;4.3;65.7
41230;BME280;26964;50.428;19.218;2023-03-12T15:11:27;1015.2;;;4.2;65.9
41230;BME280;26964;50.428;19.218;2023-03-12T15:16:28;1015.1;;;4.2;66.2
41230;BME280;26964;50.428;19.218;2023-03-12T15:21:26;1015.2;;;4.2;66.1
41230;BME280;26964;50.428;19.218;2023-03-12T15:26:28;1015.2;;;4.2;65.8
41230;BME280;26964;50.428;19.218;2023-03-12T15:31:26;1015.2;;;4.1;65.6
41230;BME280;26964;50.428;19.218;2023-03-12T15:36:28;1015.2;;;4.0;65.4
41230;BME280;26964;50.428;19.218;2023-03-12T15:46:26;1015.3;;;3.9;65.7
41230;BME280;26964;50.428;19.218;2023-03-12T15:51:28;1015.3;;;3.8;65.6
41230;BME280;26964;50.428;19.218;2023-03-12T15:56:34;1015.2;;;3.7;65.5
41230;BME280;26964;50.428;19.218;2023-03-12T16:01:26;1015.3;;;3.6;65.5
41230;BME280;26964;50.428;19.218;2023-03-12T16:06:26;1015.3;;;3.6;65.5
41230;BME280;26964;50.428;19.218;2023-03-12T16:11:30;1015.2;;;3.4;65.5
41230;BME280;26964;50.428;19.218;2023-03-12T16:16:25;1015.1;;;3.3;65.3
41230;BME280;26964;50.428;19.218;2023-03-12T16:21:26;1015.1;;;3.3;65.6
41230;BME280;26964;50.428;19.218;2023-03-12T16:26:27;1015.3;;;3.2;65.6
41230;BME280;26964;50.428;19.218;2023-03-12T16:31:26;1015.4;;;3.1;65.7
41230;BME280;26964;50.428;19.218;2023-03-12T16:36:26;1015.4;;;3.0;65.6
41230;BME280;26964;50.428;19.218;2023-03-12T16:41:27;1015.6;;;3.0;65.4
41230;BME280;26964;50.428;19.218;2023-03-12T16:46:30;1015.5;;;3.0;65.3
41230;BME280;26964;50.428;19.218;2023-03-12T16:51:26;1015.5;;;2.9;65.2
41230;BME280;26964;50.428;19.218;2023-03-12T16:56:26;1015.4;;;2.8;65.2
41230;BME280;26964;50.428;19.218;2023-03-12T17:01:26;1015.5;;;2.8;65.2
41230;BME280;26964;50.428;19.218;2023-03-12T17:06:26;1015.5;;;2.7;65.1
41230;BME280;26964;50.428;19.218;2023-03-12T17:11:31;1015.4;;;2.7;65.1
41230;BME280;26964;50.428;19.218;2023-03-12T17:16:26;1015.3;;;2.7;65.0
41230;BME280;26964;50.428;19.218;2023-03-12T17:21:26;1015.3;;;2.6;65.0
41230;BME280;26964;50.428;19.218;2023-03-12T17:26:26;1015.2;;;2.5;65.0
41230;BME280;26964;50.428;19.218;2023-03-12T17:31:25;1015.2;;;2.5;65.0
41230;BME280;26964;50.428;19.218;2023-03-12T17:36:25;1015.3;;;2.4;65.1
41230;BME280;26964;50.428;19.218;2023-03-12T17:41:26;1015.3;;;2.3;65.1
41230;BME280;26964;50.428;19.218;2023-03-12T17:46:26;1015.4;;;2.3;65.1
41230;BME280;26964;50.428;19.218;2023-03-12T17:51:25;1015.4;;;2.2;65.1
41230;BME280;26964;50.428;19.218;2023-03-12T17:56:26;1015.4;;;2.2;65.0
41230;BME280;26964;50.428;19.218;2023-03-12T18:01:25;1015.2;;;2.1;65.0
41230;BME280;26964;50.428;19.218;2023-03-12T18:06:25;1015.1;;;2.1;65.1
41230;BME280;26964;50.428;19.218;2023-03-12T18:11:25;1015.2;;;2.0;65.0
41230;BME280;26964;50.428;19.218;2023-03-12T18:16:26;1015.2;;;2.0;65.1
41230;BME280;26964;50.428;19.218;2023-03-12T18:21:26;1015.2;;;2.0;65.2
41230;BME280;26964;50.428;19.218;2023-03-12T18:26:25;1015.3;;;2.0;65.2
41230;BME280;26964;50.428;19.218;2023-03-12T18:31:25;1015.2;;;2.1;65.1
41230;BME280;26964;50.428;19.218;2023-03-12T18:36:25;1015.3;;;2.1;65.0
41230;BME280;26964;50.428;19.218;2023-03-12T18:41:25;1015.2;;;2.1;64.9
41230;BME280;26964;50.428;19.218;2023-03-12T18:46:26;1015.0;;;2.1;64.8
41230;BME280;26964;50.428;19.218;2023-03-12T18:51:25;1014.9;;;2.1;64.7
41230;BME280;26964;50.428;19.218;2023-03-12T18:56:26;1015.1;;;2.0;64.8
41230;BME280;26964;50.428;19.218;2023-03-12T19:01:26;1015.2;;;2.0;64.8
41230;BME280;26964;50.428;19.218;2023-03-12T19:06:26;1015.2;;;2.0;64.6
41230;BME280;26964;50.428;19.218;2023-03-12T19:11:25;1015.0;;;2.1;64.5
41230;BME280;26964;50.428;19.218;2023-03-12T19:16:26;1015.1;;;2.0;64.5
41230;BME280;26964;50.428;19.218;2023-03-12T19:21:26;1015.2;;;2.0;64.5
41230;BME280;26964;50.428;19.218;2023-03-12T19:26:26;1015.1;;;2.0;64.5
41230;BME280;26964;50.428;19.218;2023-03-12T19:31:25;1014.9;;;2.0;64.5
41230;BME280;26964;50.428;19.218;2023-03-12T19:36:26;1015.0;;;2.0;64.3
41230;BME280;26964;50.428;19.218;2023-03-12T19:41:25;1015.0;;;2.0;64.3
41230;BME280;26964;50.428;19.218;2023-03-12T19:46:25;1014.9;;;2.0;64.1
41230;BME280;26964;50.428;19.218;2023-03-12T19:51:25;1014.9;;;2.0;64.1
41230;BME280;26964;50.428;19.218;2023-03-12T19:56:26;1014.9;;;2.0;64.1
41230;BME280;26964;50.428;19.218;2023-03-12T20:01:25;1015.0;;;2.0;64.1
41230;BME280;26964;50.428;19.218;2023-03-12T20:06:25;1014.9;;;1.9;64.0
41230;BME280;26964;50.428;19.218;2023-03-12T20:11:26;1014.9;;;2.0;64.0
41230;BME280;26964;50.428;19.218;2023-03-12T20:16:25;1014.8;;;1.9;64.0
41230;BME280;26964;50.428;19.218;2023-03-12T20:21:25;1014.7;;;1.9;64.1
41230;BME280;26964;50.428;19.218;2023-03-12T20:26:25;1014.4;;;1.9;64.2
41230;BME280;26964;50.428;19.218;2023-03-12T20:31:26;1014.3;;;1.9;64.2
41230;BME280;26964;50.428;19.218;2023-03-12T20:36:25;1014.4;;;1.8;64.2
41230;BME280;26964;50.428;19.218;2023-03-12T20:41:26;1014.2;;;1.8;64.1
41230;BME280;26964;50.428;19.218;2023-03-12T20:46:25;1014.2;;;1.8;64.1
41230;BME280;26964;50.428;19.218;2023-03-12T20:51:27;1014.2;;;1.8;64.1
41230;BME280;26964;50.428;19.218;2023-03-12T20:56:26;1014.1;;;1.8;64.1
41230;BME280;26964;50.428;19.218;2023-03-12T21:01:25;1014.0;;;1.8;64.1
41230;BME280;26964;50.428;19.218;2023-03-12T21:06:26;1014.0;;;1.8;64.1
41230;BME280;26964;50.428;19.218;2023-03-12T21:11:25;1013.9;;;1.8;64.0
41230;BME280;26964;50.428;19.218;2023-03-12T21:16:25;1013.9;;;1.8;64.0
41230;BME280;26964;50.428;19.218;2023-03-12T21:21:26;1014.0;;;1.8;64.0
41230;BME280;26964;50.428;19.218;2023-03-12T21:26:25;1013.9;;;1.8;64.1
41230;BME280;26964;50.428;19.218;2023-03-12T21:31:25;1013.8;;;1.8;64.0
41230;BME280;26964;50.428;19.218;2023-03-12T21:36:25;1013.7;;;1.8;64.0
41230;BME280;26964;50.428;19.218;2023-03-12T21:41:26;1013.9;;;1.8;64.1
41230;BME280;26964;50.428;19.218;2023-03-12T21:46:25;1013.8;;;1.8;64.1
41230;BME280;26964;50.428;19.218;2023-03-12T21:51:27;1013.6;;;1.8;64.1
41230;BME280;26964;50.428;19.218;2023-03-12T21:56:26;1013.7;;;1.8;64.2
41230;BME280;26964;50.428;19.218;2023-03-12T22:01:25;1013.6;;;1.8;64.3
41230;BME280;26964;50.428;19.218;2023-03-12T22:06:25;1013.6;;;1.8;64.3
41230;BME280;26964;50.428;19.218;2023-03-12T22:11:26;1013.7;;;1.8;64.4
41230;BME280;26964;50.428;19.218;2023-03-12T22:16:25;1013.6;;;1.8;64.5
41230;BME280;26964;50.428;19.218;2023-03-12T22:21:25;1013.7;;;1.8;64.5
41230;BME280;26964;50.428;19.218;2023-03-12T22:26:25;1013.6;;;1.8;64.5
41230;BME280;26964;50.428;19.218;2023-03-12T22:31:26;1013.7;;;1.8;64.4
41230;BME280;26964;50.428;19.218;2023-03-12T22:36:25;1013.7;;;1.8;64.4
41230;BME280;26964;50.428;19.218;2023-03-12T22:41:27;1013.7;;;1.9;64.4
41230;BME280;26964;50.428;19.218;2023-03-12T22:46:25;1013.6;;;1.9;64.3
41230;BME280;26964;50.428;19.218;2023-03-12T22:51:26;1013.7;;;1.9;64.4
41230;BME280;26964;50.428;19.218;2023-03-12T22:56:25;1013.8;;;1.9;64.4
41230;BME280;26964;50.428;19.218;2023-03-12T23:01:25;1013.8;;;2.0;64.4
41230;BME280;26964;50.428;19.218;2023-03-12T23:06:26;1013.7;;;2.0;64.4
41230;BME280;26964;50.428;19.218;2023-03-12T23:11:26;1013.6;;;2.0;64.4
41230;BME280;26964;50.428;19.218;2023-03-12T23:16:25;1013.6;;;2.0;64.4
41230;BME280;26964;50.428;19.218;2023-03-12T23:21:25;1013.5;;;2.0;64.5
41230;BME280;26964;50.428;19.218;2023-03-12T23:26:27;1013.6;;;2.1;64.5
41230;BME280;26964;50.428;19.218;2023-03-12T23:31:26;1013.6;;;2.1;64.6
41230;BME280;26964;50.428;19.218;2023-03-12T23:36:25;1013.7;;;2.2;64.6
41230;BME280;26964;50.428;19.218;2023-03-12T23:41:26;1013.7;;;2.2;64.8
41230;BME280;26964;50.428;19.218;2023-03-12T23:46:25;1013.7;;;2.3;64.9
41230;BME280;26964;50.428;19.218;2023-03-12T23:51:26;1013.5;;;2.5;65.2
41230;BME280;26964;50.428;19.218;2023-03-12T23:56:29;1013.6;;;2.8;65.5
